Time;durP1;ratioP1;P1;durP2;ratioP2;P2;SDS_P1;SDS_P2;PMS_P1;PMS_P2;Temp;Humidity;BMP_temperature;BMP_pressure;BME280_temperature;BME280_humidity;BME280_pressure;Samples;Min_cycle;Max_cycle;Signal;HPM_P1;HPM_P2
2023/01/29 00:00:09;;;;;;;77.30;32.42;;;-3.10;99.90;;;-144.05;75.30;125687.94;5041277;28;20056;-82
2023/01/29 00:02:38;;;;;;;74.75;34.20;;;-3.00;99.90;;;-144.05;75.43;125687.94;5059456;28;20033;-82
2023/01/29 00:05:06;;;;;;;76.70;32.97;;;-3.00;99.90;;;-144.05;75.13;125687.94;5059000;28;20102;-81
2023/01/29 00:07:32;;;;;;;65.43;31.52;;;-2.90;99.90;;;-144.05;75.06;125687.94;5041264;28;20067;-83
2023/01/29 00:09:58;;;;;;;71.38;32.50;;;-2.90;99.90;;;-144.05;74.36;125687.94;5058077;28;20114;-82
2023/01/29 00:12:24;;;;;;;71.03;31.83;;;-2.90;99.90;;;-144.05;74.12;125687.94;5057876;28;20029;-82
2023/01/29 00:14:49;;;;;;;65.47;30.75;;;-2.90;99.90;;;-144.05;74.06;125687.94;5058500;28;20033;-82
2023/01/29 00:17:15;;;;;;;75.63;32.03;;;-2.90;99.90;;;-144.05;74.04;125687.94;5066490;28;20048;-80
2023/01/29 00:19:41;;;;;;;70.05;30.70;;;-3.00;99.90;;;-144.05;74.21;125687.94;5061369;28;20457;-82
2023/01/29 00:22:07;;;;;;;67.35;30.90;;;-3.00;99.90;;;-144.05;74.76;125687.94;5060662;28;20082;-81
2023/01/29 00:24:33;;;;;;;65.95;31.33;;;-3.00;99.90;;;-144.05;74.43;125687.94;5060974;28;20028;-84
2023/01/29 00:26:58;;;;;;;64.78;32.45;;;-3.00;99.90;;;-144.05;74.57;125687.94;5041869;28;20048;-83
2023/01/29 00:29:24;;;;;;;75.47;33.53;;;-3.00;99.90;;;-144.05;74.21;125687.94;5059634;28;20530;-82
2023/01/29 00:31:50;;;;;;;67.05;31.52;;;-3.10;99.90;;;-144.05;73.74;125687.94;5041021;28;20025;-81
2023/01/29 00:34:16;;;;;;;72.20;31.83;;;-3.10;99.90;;;-144.05;74.48;125687.94;5041002;28;20036;-80
2023/01/29 00:36:43;;;;;;;74.53;34.47;;;-3.10;99.90;;;-144.05;74.33;125687.94;5058712;28;20102;-81
2023/01/29 00:39:09;;;;;;;68.82;31.40;;;-3.10;99.90;;;-144.05;74.44;125687.94;5059112;28;20451;-83
2023/01/29 00:49:51;;;;;;;74.00;32.72;;;-3.20;99.90;;;-144.05;74.55;125687.94;5061970;28;20036;-82
2023/01/29 00:52:25;;;;;;;69.25;31.33;;;-3.20;99.90;;;-144.05;74.34;125687.94;5061816;28;20037;-83
2023/01/29 00:54:58;;;;;;;69.35;34.20;;;-3.30;99.90;;;-144.05;74.73;125687.94;5060061;28;20032;-83
2023/01/29 00:57:28;;;;;;;69.57;31.65;;;-3.30;99.90;;;-144.05;75.23;125687.94;5061943;28;20029;-80
2023/01/29 00:59:54;;;;;;;70.28;31.73;;;-3.30;99.90;;;-144.05;75.01;125687.94;5041315;28;20452;-82
2023/01/29 01:05:13;;;;;;;73.68;31.60;;;-3.30;99.90;;;-144.05;75.28;125687.94;5058261;28;20039;-81
2023/01/29 01:07:40;;;;;;;76.88;34.38;;;-3.30;99.90;;;-144.05;74.77;125687.94;5058256;28;20029;-80
2023/01/29 01:10:20;;;;;;;71.03;33.17;;;-3.30;99.90;;;-144.05;75.01;125687.94;5040287;28;20025;-80
2023/01/29 01:12:59;;;;;;;70.75;31.85;;;-3.30;99.90;;;-144.05;74.78;125687.94;5038386;28;20032;-83
2023/01/29 01:15:30;;;;;;;65.95;31.67;;;-3.30;99.90;;;-144.05;74.48;125687.94;5039489;28;20025;-83
2023/01/29 01:18:00;;;;;;;71.80;31.73;;;-3.40;99.90;;;-144.05;74.64;125687.94;5058759;28;20041;-84
2023/01/29 01:20:30;;;;;;;71.30;30.70;;;-3.40;99.90;;;-144.05;74.60;125687.94;5059651;28;20037;-83
2023/01/29 01:22:56;;;;;;;79.40;32.38;;;-3.40;99.90;;;-144.05;74.54;125687.94;5058921;28;20043;-82
2023/01/29 01:25:25;;;;;;;67.82;31.58;;;-3.50;99.90;;;-144.05;74.64;125687.94;5040938;28;20025;-83
2023/01/29 01:27:58;;;;;;;70.45;33.10;;;-3.60;99.90;;;-144.05;74.17;125687.94;5058926;28;20024;-84
2023/01/29 01:30:25;;;;;;;72.35;33.45;;;-3.70;99.90;;;-144.05;74.51;125687.94;5041631;28;20025;-82
2023/01/29 01:32:52;;;;;;;78.72;33.25;;;-3.70;99.90;;;-144.05;75.00;125687.94;5058093;28;20128;-83
2023/01/29 01:35:18;;;;;;;76.63;33.80;;;-3.70;99.90;;;-144.05;76.00;125687.94;5041483;28;20029;-80
2023/01/29 01:37:48;;;;;;;75.72;33.13;;;-3.50;99.90;;;-144.05;75.76;125687.94;5059974;28;20037;-84
2023/01/29 01:40:19;;;;;;;78.45;34.08;;;-3.50;99.90;;;-144.05;75.68;125687.94;5040083;28;20037;-83
2023/01/29 01:42:56;;;;;;;79.32;35.10;;;-3.40;99.90;;;-144.05;75.75;125687.94;5058199;28;20086;-82
2023/01/29 01:45:34;;;;;;;76.47;34.15;;;-3.30;99.90;;;-144.05;75.37;125687.94;5040394;28;20021;-83
2023/01/29 01:48:25;;;;;;;70.57;32.42;;;-3.20;99.90;;;-144.05;74.81;125687.94;5057956;28;20047;-82
2023/01/29 01:51:05;;;;;;;73.63;32.80;;;-3.20;99.90;;;-144.05;74.53;125687.94;5056775;28;20086;-83
2023/01/29 01:53:49;;;;;;;80.03;33.75;;;-3.20;99.90;;;-144.05;74.78;125687.94;5056458;28;20047;-84
2023/01/29 01:56:45;;;;;;;79.22;33.33;;;-3.20;99.90;;;-144.05;74.64;125687.94;5057460;28;20392;-81
2023/01/29 01:59:17;;;;;;;69.68;29.98;;;-3.20;99.90;;;-144.05;74.45;125687.94;5039363;28;20095;-82
2023/01/29 02:01:52;;;;;;;73.00;31.58;;;-3.30;99.90;;;-144.05;74.55;125687.94;5039831;28;20032;-82
2023/01/29 02:10:15;;;;;;;69.80;29.65;;;-3.40;99.90;;;-144.05;74.59;125687.94;5057016;28;20039;-81
2023/01/29 02:12:44;;;;;;;72.47;30.40;;;-3.40;99.90;;;-144.05;74.36;125687.94;5039097;28;20443;-82
2023/01/29 02:15:12;;;;;;;70.03;30.73;;;-3.40;99.90;;;-144.05;74.74;125687.94;5039454;28;20128;-83
2023/01/29 02:17:38;;;;;;;71.97;32.95;;;-3.40;99.90;;;-144.05;74.85;125687.94;5055728;28;20037;-82
2023/01/29 02:20:23;;;;;;;73.43;33.15;;;-3.40;99.90;;;-144.05;75.13;125687.94;5038801;28;20111;-83
2023/01/29 02:23:56;;;;;;;73.38;32.22;;;-3.40;99.90;;;-144.05;74.90;125687.94;5038972;28;20036;-82
2023/01/29 02:27:05;;;;;;;76.45;31.35;;;-3.40;99.90;;;-144.05;74.75;125687.94;5056679;28;20088;-81
2023/01/29 02:29:44;;;;;;;74.70;31.80;;;-3.40;99.90;;;-144.05;74.83;125687.94;5054884;28;20029;-83
2023/01/29 02:32:28;;;;;;;70.97;33.05;;;-3.40;99.90;;;-144.05;74.23;125687.94;5036896;28;20040;-80
2023/01/29 02:35:29;;;;;;;74.22;29.83;;;-3.40;99.90;;;-144.05;74.59;125687.94;5054452;28;20043;-82
2023/01/29 02:38:58;;;;;;;73.78;32.70;;;-3.40;99.90;;;-144.05;75.26;125687.94;5053784;28;20025;-82
2023/01/29 02:41:44;;;;;;;68.72;31.00;;;-3.40;99.90;;;-144.05;75.15;125687.94;5045339;28;20475;-82
2023/01/29 02:44:27;;;;;;;;;;;-3.40;99.90;;;-144.05;75.13;125687.94;5037948;28;20029;-84
2023/01/29 02:47:08;;;;;;;74.30;31.58;;;-3.40;99.90;;;-144.05;75.05;125687.94;5038284;28;20505;-84
2023/01/29 02:50:09;;;;;;;80.72;33.22;;;-3.30;99.90;;;-144.05;75.07;125687.94;5055740;28;20033;-83
2023/01/29 02:52:57;;;;;;;74.40;33.08;;;-3.30;99.90;;;-144.05;74.50;125687.94;5055106;28;20021;-84
2023/01/29 02:55:50;;;;;;;86.63;33.80;;;-3.30;99.90;;;-144.05;74.53;125687.94;5055931;28;20108;-81
2023/01/29 02:58:41;;;;;;;78.70;32.47;;;-3.40;99.90;;;-144.05;74.69;125687.94;5055555;28;20029;-82
2023/01/29 03:01:22;;;;;;;78.75;32.80;;;-3.40;99.90;;;-144.05;75.18;125687.94;5055829;28;20021;-82
2023/01/29 03:04:01;;;;;;;78.65;33.58;;;-3.40;99.90;;;-144.05;75.67;125687.94;5054583;28;20033;-83
2023/01/29 03:06:53;;;;;;;77.78;35.30;;;-3.30;99.90;;;-144.05;75.35;125687.94;5057235;28;20033;-82
2023/01/29 03:09:38;;;;;;;86.95;35.17;;;-3.20;99.90;;;-144.05;75.34;125687.94;5055565;28;20025;-81
2023/01/29 03:12:32;;;;;;;76.97;34.78;;;-3.20;99.90;;;-144.05;75.08;125687.94;5056775;28;20549;-81
2023/01/29 03:15:15;;;;;;;83.40;34.30;;;-3.10;99.90;;;-144.05;75.00;125687.94;5038245;28;20033;-84
2023/01/29 03:17:57;;;;;;;79.65;35.10;;;-3.10;99.90;;;-144.05;74.86;125687.94;5056581;28;20053;-81
2023/01/29 03:20:35;;;;;;;76.75;33.00;;;-3.00;99.90;;;-144.05;74.71;125687.94;5059320;28;20028;-82
2023/01/29 03:23:46;;;;;;;75.18;34.45;;;-3.00;99.90;;;-144.05;74.65;125687.94;5058268;28;20448;-84
2023/01/29 03:32:05;;;;;;;80.68;33.42;;;-2.90;99.90;;;-144.05;73.82;125687.94;5058822;28;20399;-84
2023/01/29 03:34:43;;;;;;;77.43;36.28;;;-2.90;99.90;;;-144.05;74.17;125687.94;5058929;28;20036;-80
2023/01/29 03:37:42;;;;;;;85.85;37.10;;;-3.00;99.90;;;-144.05;73.83;125687.94;5040429;28;20033;-82
2023/01/29 03:40:10;;;;;;;78.28;34.15;;;-3.00;99.90;;;-144.05;73.49;125687.94;5040694;28;20032;-83
2023/01/29 03:43:13;;;;;;;79.30;34.25;;;-3.00;99.90;;;-144.05;73.69;125687.94;5059852;28;20033;-82
2023/01/29 03:45:58;;;;;;;75.10;33.25;;;-3.00;99.90;;;-144.05;73.76;125687.94;5059127;28;20040;-81
2023/01/29 03:49:39;;;;;;;78.05;34.63;;;-3.10;99.90;;;-144.05;73.52;125687.94;5058224;28;20037;-82
2023/01/29 03:52:31;;;;;;;70.90;31.50;;;-3.10;99.90;;;-144.05;73.39;125687.94;5001679;28;20033;-83
2023/01/29 03:55:22;;;;;;;71.32;31.75;;;-3.10;99.90;;;-144.05;73.22;125687.94;5058797;28;20024;-83
2023/01/29 03:58:09;;;;;;;79.22;33.63;;;-3.10;99.90;;;-144.05;73.20;125687.94;5045388;28;20093;-81
2023/01/29 04:00:51;;;;;;;81.47;33.95;;;-3.10;99.90;;;-144.05;73.33;125687.94;5058707;28;20029;-83
2023/01/29 04:03:32;;;;;;;83.25;34.45;;;-3.20;99.90;;;-144.05;73.69;125687.94;5058300;28;20031;-83
2023/01/29 04:06:17;;;;;;;80.05;35.25;;;-3.20;99.90;;;-144.05;73.92;125687.94;5058457;28;20032;-81
2023/01/29 04:09:30;;;;;;;83.20;34.80;;;-3.10;99.90;;;-144.05;73.91;125687.94;5057900;28;20017;-80
2023/01/29 04:12:10;;;;;;;88.40;35.63;;;-3.10;99.90;;;-144.05;73.92;125687.94;5039410;28;20083;-81
2023/01/29 04:14:38;;;;;;;82.45;35.03;;;-3.00;99.90;;;-144.05;73.68;125687.94;5058024;28;20434;-81
2023/01/29 04:17:44;;;;;;;78.45;35.75;;;-3.00;99.90;;;-144.05;73.50;125687.94;5039320;28;20029;-81
2023/01/29 04:20:11;;;;;;;81.90;33.20;;;-2.90;99.90;;;-144.05;73.47;125687.94;5039814;28;20036;-81
2023/01/29 04:22:39;;;;;;;75.20;32.58;;;-2.90;99.90;;;-144.05;73.68;125687.94;5039261;28;20412;-81
2023/01/29 04:25:14;;;;;;;75.40;33.53;;;-2.90;99.90;;;-144.05;73.64;125687.94;5057802;28;20025;-81
2023/01/29 04:28:15;;;;;;;;;;;-2.80;99.90;;;-144.05;73.57;125687.94;5057961;28;20112;-82
2023/01/29 04:31:09;;;;;;;79.70;31.63;;;-2.80;99.90;;;-144.05;73.54;125687.94;5045732;28;19915;-82
2023/01/29 04:34:22;;;;;;;81.63;34.28;;;-2.80;99.90;;;-144.05;73.35;125687.94;5039853;28;20036;-83
2023/01/29 04:37:25;;;;;;;84.43;36.60;;;-2.80;99.90;;;-144.05;73.94;125687.94;5039458;28;20035;-84
2023/01/29 04:40:32;;;;;;;92.95;37.60;;;-2.70;99.90;;;-144.05;73.85;125687.94;5045940;28;20041;-83
2023/01/29 04:43:16;;;;;;;97.82;41.17;;;-2.60;99.90;;;-144.05;73.60;125687.94;5056630;28;20039;-82
2023/01/29 04:46:44;;;;;;;88.22;38.22;;;-2.50;99.90;;;-144.05;73.15;125687.94;5055588;28;20111;-82
2023/01/29 04:49:33;;;;;;;;;;;-2.40;99.90;;;-144.05;73.37;125687.94;5038894;28;20059;-83
2023/01/29 04:52:12;;;;;;;84.05;36.08;;;-2.40;99.90;;;-144.05;72.50;125687.94;5038318;28;20287;-82
2023/01/29 04:55:13;;;;;;;97.78;40.70;;;-2.30;99.90;;;-144.05;72.95;125687.94;5038210;28;20029;-83
2023/01/29 04:58:11;;;;;;;97.88;39.90;;;-2.20;99.90;;;-144.05;72.95;125687.94;5056710;28;20162;-82
2023/01/29 05:00:52;;;;;;;93.63;38.15;;;-2.10;99.90;;;-144.05;72.98;125687.94;5042016;28;20087;-83
2023/01/29 05:03:25;;;;;;;93.65;39.03;;;-2.00;99.90;;;-144.05;72.42;125687.94;5040704;28;20029;-83
2023/01/29 05:05:56;;;;;;;93.25;39.25;;;-2.00;99.90;;;-144.05;72.18;125687.94;5059030;28;20085;-81
2023/01/29 05:08:28;;;;;;;86.28;37.38;;;-2.00;99.90;;;-144.05;72.00;125687.94;5040233;28;20021;-83
2023/01/29 05:10:58;;;;;;;94.05;39.67;;;-1.90;99.90;;;-144.05;72.21;125687.94;5058217;28;20446;-82
2023/01/29 05:13:30;;;;;;;93.70;39.90;;;-1.90;99.90;;;-144.05;72.22;125687.94;5039604;28;20110;-84
2023/01/29 05:16:41;;;;;;;91.90;38.72;;;-1.90;99.90;;;-144.05;72.09;125687.94;5039327;28;20496;-82
2023/01/29 05:19:14;;;;;;;91.20;39.60;;;-1.90;99.90;;;-144.05;71.96;125687.94;5035438;28;20033;-82
2023/01/29 05:21:46;;;;;;;89.53;39.55;;;-1.90;99.90;;;-144.05;71.51;125687.94;5057901;28;20044;-81
2023/01/29 05:24:25;;;;;;;92.22;39.72;;;-1.80;99.90;;;-144.05;71.11;125687.94;5038816;28;20504;-82
2023/01/29 05:29:45;;;;;;;87.55;37.10;;;-1.90;99.90;;;-144.05;70.93;125687.94;5058636;28;20069;-81
2023/01/29 05:32:12;;;;;;;80.15;37.88;;;-1.90;99.90;;;-144.05;70.75;125687.94;5059399;28;20029;-83
2023/01/29 05:34:38;;;;;;;92.35;38.40;;;-1.90;99.90;;;-144.05;70.54;125687.94;5059539;28;20550;-85
2023/01/29 05:37:04;;;;;;;92.00;40.95;;;-1.80;99.90;;;-144.05;70.80;125687.94;5059608;28;20025;-84
2023/01/29 05:39:29;;;;;;;95.22;38.60;;;-1.80;99.90;;;-144.05;71.21;125687.94;5039712;28;20036;-84
2023/01/29 05:41:56;;;;;;;93.30;40.88;;;-1.80;99.90;;;-144.05;71.10;125687.94;5040714;28;20082;-85
2023/01/29 05:44:22;;;;;;;93.88;39.28;;;-1.70;99.90;;;-144.05;71.13;125687.94;5061036;28;20032;-83
2023/01/29 05:46:49;;;;;;;90.55;38.65;;;-1.70;99.90;;;-144.05;70.69;125687.94;5040345;28;20123;-83
2023/01/29 05:49:19;;;;;;;90.35;41.03;;;-1.70;99.90;;;-144.05;70.65;125687.94;5040670;28;20051;-83
2023/01/29 05:51:45;;;;;;;95.07;39.15;;;-1.70;99.90;;;-144.05;70.81;125687.94;5039869;28;20029;-83
2023/01/29 05:54:12;;;;;;;91.82;39.80;;;-1.70;99.90;;;-144.05;70.89;125687.94;5038677;28;20476;-82
2023/01/29 05:56:39;;;;;;;86.00;40.05;;;-1.70;99.90;;;-144.05;70.69;125687.94;5056465;28;20476;-83
2023/01/29 05:59:06;;;;;;;89.15;37.80;;;-1.70;99.90;;;-144.05;70.61;125687.94;5037411;28;20201;-82
2023/01/29 06:01:32;;;;;;;89.50;37.63;;;-1.60;99.90;;;-144.05;70.41;125687.94;5037780;28;20396;-83
2023/01/29 06:03:58;;;;;;;83.43;37.00;;;-1.60;99.90;;;-144.05;69.98;125687.94;5037350;28;20036;-82
2023/01/29 06:06:24;;;;;;;87.32;37.60;;;-1.60;99.90;;;-144.05;70.02;125687.94;5055548;28;20025;-83
2023/01/29 06:08:49;;;;;;;85.78;37.83;;;-1.60;99.90;;;-144.05;70.24;125687.94;5055706;28;20025;-83
2023/01/29 06:11:17;;;;;;;93.03;36.65;;;-1.60;99.90;;;-144.05;70.18;125687.94;5057097;28;20040;-81
2023/01/29 06:13:47;;;;;;;78.55;34.42;;;-1.60;99.90;;;-144.05;70.47;125687.94;5056794;28;20100;-84
2023/01/29 06:16:13;;;;;;;83.82;35.00;;;-1.60;99.90;;;-144.05;70.50;125687.94;5037795;28;20522;-81
2023/01/29 06:18:41;;;;;;;83.00;36.90;;;-1.60;99.90;;;-144.05;70.42;125687.94;5037008;28;20033;-85
2023/01/29 06:21:12;;;;;;;76.20;33.47;;;-1.60;99.90;;;-144.05;70.63;125687.94;5037401;28;20036;-82
2023/01/29 06:23:38;;;;;;;83.80;34.47;;;-1.50;99.90;;;-144.05;70.55;125687.94;5037487;28;20033;-83
2023/01/29 06:26:13;;;;;;;79.97;34.83;;;-1.50;99.90;;;-144.05;70.37;125687.94;5037571;28;20480;-82
2023/01/29 06:28:40;;;;;;;84.05;34.67;;;-1.50;99.90;;;-144.05;70.16;125687.94;5054304;28;20025;-82
2023/01/29 06:31:07;;;;;;;78.47;33.60;;;-1.40;99.90;;;-144.05;70.34;125687.94;5036180;28;20166;-83
2023/01/29 06:33:33;;;;;;;74.90;32.33;;;-1.40;99.90;;;-144.05;70.07;125687.94;5053030;28;20060;-82
2023/01/29 06:36:03;;;;;;;80.70;32.75;;;-1.40;99.90;;;-144.05;70.36;125687.94;5054122;28;20040;-83
2023/01/29 06:38:30;;;;;;;72.88;32.25;;;-1.40;99.90;;;-144.05;70.17;125687.94;5035401;28;20032;-83
2023/01/29 06:40:57;;;;;;;70.78;32.78;;;-1.40;99.90;;;-144.05;70.27;125687.94;5054373;28;20025;-82
2023/01/29 06:43:23;;;;;;;78.93;33.05;;;-1.40;99.90;;;-144.05;70.04;125687.94;5054182;28;20055;-83
2023/01/29 06:45:54;;;;;;;75.97;33.83;;;-1.40;99.90;;;-144.05;70.23;125687.94;5035862;28;20024;-82
2023/01/29 06:48:22;;;;;;;69.15;31.40;;;-1.30;99.90;;;-144.05;70.37;125687.94;5053811;28;20433;-81
2023/01/29 06:50:48;;;;;;;73.97;31.83;;;-1.30;99.90;;;-144.05;70.67;125687.94;5036200;28;20086;-81
2023/01/29 06:53:16;;;;;;;68.13;30.35;;;-1.30;99.90;;;-144.05;70.33;125687.94;5036794;28;20451;-81
2023/01/29 06:55:50;;;;;;;75.22;31.75;;;-1.30;99.90;;;-144.05;70.05;125687.94;5057359;28;20112;-79
2023/01/29 06:58:16;;;;;;;71.82;32.08;;;-1.20;99.90;;;-144.05;70.38;125687.94;5057911;28;20059;-81
2023/01/29 07:00:42;;;;;;;76.63;33.08;;;-1.20;99.90;;;-144.05;70.28;125687.94;5057958;28;20108;-81
2023/01/29 07:03:09;;;;;;;68.75;30.20;;;-1.20;99.90;;;-144.05;70.66;125687.94;5057968;28;20120;-82
2023/01/29 07:05:36;;;;;;;71.28;30.10;;;-1.20;99.90;;;-144.05;70.63;125687.94;5040160;28;20476;-81
2023/01/29 07:08:03;;;;;;;64.57;28.73;;;-1.20;99.90;;;-144.05;70.49;125687.94;5057987;28;20044;-83
2023/01/29 07:10:29;;;;;;;65.45;29.88;;;-1.20;99.90;;;-144.05;70.68;125687.94;5058275;28;20043;-82
2023/01/29 07:12:57;;;;;;;73.43;32.72;;;-1.10;99.90;;;-144.05;70.70;125687.94;5058122;28;20433;-81
2023/01/29 07:15:23;;;;;;;69.60;29.70;;;-1.10;99.90;;;-144.05;70.56;125687.94;5057514;28;20055;-81
2023/01/29 07:18:04;;;;;;;69.97;29.42;;;-1.10;99.90;;;-144.05;70.63;125687.94;5057512;28;20025;-81
2023/01/29 07:20:30;;;;;;;64.15;28.48;;;-1.00;99.90;;;-144.05;70.38;125687.94;5040139;28;20097;-82
2023/01/29 07:22:57;;;;;;;70.40;30.88;;;-1.00;99.90;;;-144.05;70.74;125687.94;5058695;28;20051;-84
2023/01/29 07:25:24;;;;;;;68.72;30.60;;;-1.00;99.90;;;-144.05;70.54;125687.94;5041781;28;20025;-80
2023/01/29 07:27:50;;;;;;;69.18;30.30;;;-1.00;99.90;;;-144.05;70.37;125687.94;5041791;28;20032;-82
2023/01/29 07:30:16;;;;;;;70.10;30.10;;;-1.00;99.90;;;-144.05;70.48;125687.94;5040472;28;20396;-82
2023/01/29 07:32:43;;;;;;;67.07;29.52;;;-1.00;99.90;;;-144.05;70.47;125687.94;5058334;28;20032;-83
2023/01/29 07:35:09;;;;;;;71.65;29.38;;;-1.00;99.90;;;-144.05;70.79;125687.94;5041207;28;20465;-82
2023/01/29 07:37:35;;;;;;;71.90;31.77;;;-1.00;99.90;;;-144.05;70.58;125687.94;5059322;28;20040;-82
2023/01/29 07:40:03;;;;;;;67.47;29.63;;;-1.00;99.90;;;-144.05;70.41;125687.94;5060752;28;20033;-80
2023/01/29 07:42:30;;;;;;;63.80;29.13;;;-0.90;99.90;;;-144.05;70.21;125687.94;5058881;28;20316;-81
2023/01/29 07:44:55;;;;;;;64.97;29.23;;;-0.90;99.90;;;-144.05;70.17;125687.94;5060037;28;20462;-83
2023/01/29 07:47:21;;;;;;;66.75;30.40;;;-0.90;99.90;;;-144.05;70.46;125687.94;5060079;28;20021;-82
2023/01/29 07:49:47;;;;;;;64.28;29.33;;;-0.90;99.90;;;-144.05;70.78;125687.94;5059887;28;20036;-82
2023/01/29 07:52:13;;;;;;;60.85;28.50;;;-0.90;99.90;;;-144.05;70.25;125687.94;5058846;28;20021;-82
2023/01/29 07:54:38;;;;;;;67.75;30.85;;;-0.80;99.90;;;-144.05;70.27;125687.94;5060781;28;20029;-82
2023/01/29 07:57:04;;;;;;;66.93;31.17;;;-0.80;99.90;;;-144.05;70.17;125687.94;5039718;28;20025;-77
2023/01/29 07:59:30;;;;;;;64.60;29.67;;;-0.80;99.90;;;-144.05;70.32;125687.94;5056766;28;20541;-80
2023/01/29 08:01:56;;;;;;;70.05;30.98;;;-0.70;99.90;;;-144.05;70.20;125687.94;5057255;28;20024;-81
2023/01/29 08:04:22;;;;;;;67.68;29.45;;;-0.70;99.90;;;-144.05;70.34;125687.94;5040770;28;20250;-79
2023/01/29 08:06:49;;;;;;;64.57;27.92;;;-0.70;99.90;;;-144.05;70.16;125687.94;5040730;28;20084;-83
2023/01/29 08:09:15;;;;;;;62.42;28.95;;;-0.60;99.90;;;-144.05;69.98;125687.94;5037634;28;20028;-76
2023/01/29 08:11:40;;;;;;;65.78;28.65;;;-0.60;99.90;;;-144.05;70.01;125687.94;5058091;28;20021;-84
2023/01/29 08:14:08;;;;;;;67.22;30.02;;;-0.60;99.90;;;-144.05;69.68;125687.94;5041626;28;20186;-81
2023/01/29 08:16:34;;;;;;;65.35;28.02;;;-0.60;99.90;;;-144.05;69.41;125687.94;5041385;28;20078;-81
2023/01/29 08:19:01;;;;;;;66.25;29.60;;;-0.60;99.90;;;-144.05;69.19;125687.94;5057876;28;20029;-79
2023/01/29 08:21:27;;;;;;;68.82;32.03;;;-0.50;99.90;;;-144.05;69.17;125687.94;5059218;28;20064;-80
2023/01/29 08:23:54;;;;;;;62.92;28.30;;;-0.50;99.90;;;-144.05;69.11;125687.94;5042628;28;20036;-84
2023/01/29 08:26:20;;;;;;;65.95;28.83;;;-0.50;99.90;;;-144.05;69.41;125687.94;5044336;28;20029;-81
2023/01/29 08:28:46;;;;;;;72.57;30.85;;;-0.50;99.90;;;-144.05;69.33;125687.94;5042788;28;20414;-79
2023/01/29 08:31:19;;;;;;;64.13;29.30;;;-0.50;99.90;;;-144.05;69.62;125687.94;5061040;28;20025;-81
2023/01/29 08:33:45;;;;;;;61.35;27.50;;;-0.40;99.90;;;-144.05;69.39;125687.94;5042288;28;20029;-81
2023/01/29 08:36:11;;;;;;;62.08;28.25;;;-0.40;99.90;;;-144.05;68.99;125687.94;5060338;28;20033;-80
2023/01/29 08:38:37;;;;;;;61.67;27.70;;;-0.40;99.90;;;-144.05;69.16;125687.94;5060908;28;20039;-81
2023/01/29 08:41:04;;;;;;;65.55;28.45;;;-0.40;99.90;;;-144.05;69.08;125687.94;5062392;28;20028;-82
2023/01/29 08:43:30;;;;;;;68.05;28.55;;;-0.40;99.90;;;-144.05;69.47;125687.94;5066317;28;20023;-82
2023/01/29 08:45:56;;;;;;;64.38;28.80;;;-0.40;99.90;;;-144.05;69.46;125687.94;5055835;28;20129;-82
2023/01/29 08:48:22;;;;;;;61.15;28.08;;;-0.40;99.90;;;-144.05;69.44;125687.94;5056201;28;20017;-80
2023/01/29 08:50:48;;;;;;;69.65;30.33;;;-0.40;99.90;;;-144.05;69.22;125687.94;5056582;28;20033;-80
2023/01/29 08:53:14;;;;;;;67.30;29.70;;;-0.40;99.90;;;-144.05;69.29;125687.94;5041003;28;20442;-81
2023/01/29 08:55:40;;;;;;;64.97;29.98;;;-0.40;99.90;;;-144.05;70.02;125687.94;5038402;28;20029;-81
2023/01/29 08:58:10;;;;;;;71.97;30.42;;;-0.40;99.90;;;-144.05;69.70;125687.94;5039725;28;20024;-80
2023/01/29 09:00:37;;;;;;;68.22;31.10;;;-0.40;99.90;;;-144.05;69.58;125687.94;5055864;28;20029;-81
2023/01/29 09:03:06;;;;;;;65.05;29.45;;;-0.30;99.90;;;-144.05;69.41;125687.94;5037494;28;20388;-81
2023/01/29 09:05:34;;;;;;;67.88;30.42;;;-0.20;99.90;;;-144.05;69.28;125687.94;5055397;28;20439;-81
2023/01/29 09:08:00;;;;;;;67.57;30.23;;;-0.20;99.90;;;-144.05;69.16;125687.94;5056193;28;20519;-81
2023/01/29 09:10:26;;;;;;;68.45;30.10;;;-0.10;99.90;;;-144.05;68.99;125687.94;5038483;28;20056;-81
2023/01/29 09:12:52;;;;;;;67.55;30.25;;;-0.10;99.90;;;-144.05;69.54;125687.94;5037213;28;20056;-81
2023/01/29 09:15:18;;;;;;;67.85;31.65;;;0.00;99.90;;;-144.05;69.23;125687.94;5037272;28;20032;-80
2023/01/29 09:17:44;;;;;;;64.70;29.15;;;0.00;99.90;;;-144.05;69.20;125687.94;5055490;28;20112;-81
2023/01/29 09:20:11;;;;;;;69.47;30.33;;;0.00;99.90;;;-144.05;68.89;125687.94;5055384;28;20043;-84
2023/01/29 09:22:37;;;;;;;67.32;30.30;;;0.10;99.90;;;-144.05;68.51;125687.94;5037001;28;20029;-80
2023/01/29 09:25:03;;;;;;;69.32;30.42;;;0.20;99.90;;;-144.05;68.47;125687.94;5056334;28;20056;-81
2023/01/29 09:27:29;;;;;;;69.28;30.17;;;0.20;99.90;;;-144.05;68.59;125687.94;5038754;28;20057;-82
2023/01/29 09:29:55;;;;;;;67.15;30.25;;;0.20;99.90;;;-144.05;68.03;125687.94;5042054;28;20029;-81
2023/01/29 09:32:21;;;;;;;62.42;29.27;;;0.30;99.90;;;-144.05;67.73;125687.94;5036914;28;20603;-80
2023/01/29 09:34:47;;;;;;;72.38;30.63;;;0.40;99.90;;;-144.05;68.12;125687.94;5054553;28;20511;-83
2023/01/29 09:37:13;;;;;;;67.55;29.80;;;0.40;99.90;;;-144.05;68.01;125687.94;5054504;28;20032;-81
2023/01/29 09:39:38;;;;;;;71.03;30.50;;;0.40;99.90;;;-144.05;67.54;125687.94;5037930;28;20039;-79
2023/01/29 09:42:28;;;;;;;65.60;30.75;;;0.50;99.90;;;-144.05;67.16;125687.94;5039442;28;20021;-81
2023/01/29 09:45:23;;;;;;;65.85;29.48;;;0.50;99.90;;;-144.05;67.66;125687.94;5040119;28;20078;-81
2023/01/29 09:47:52;;;;;;;66.03;30.05;;;0.60;99.90;;;-144.05;67.58;125687.94;5063128;28;20051;-82
2023/01/29 09:50:45;;;;;;;63.92;29.92;;;0.60;99.90;;;-144.05;67.65;125687.94;5062583;28;20102;-80
2023/01/29 09:53:53;;;;;;;68.22;31.27;;;0.60;99.90;;;-144.05;67.97;125687.94;5043622;28;20025;-82
2023/01/29 09:56:27;;;;;;;71.55;30.27;;;0.60;99.90;;;-144.05;67.63;125687.94;5059837;28;20412;-82
2023/01/29 09:58:58;;;;;;;65.65;29.80;;;0.60;99.90;;;-144.05;67.81;125687.94;5041893;28;20029;-82
2023/01/29 10:02:03;;;;;;;63.33;29.23;;;0.50;99.90;;;-144.05;68.13;125687.94;5042229;28;20029;-81
2023/01/29 10:05:09;;;;;;;66.43;30.63;;;0.50;99.90;;;-144.05;68.33;125687.94;5041257;28;20376;-80
2023/01/29 10:08:15;;;;;;;47.40;21.10;;;0.40;99.90;;;-144.05;68.15;125687.94;5063227;28;20043;-81
2023/01/29 10:11:11;;;;;;;65.30;28.67;;;0.40;99.90;;;-144.05;68.23;125687.94;5044087;28;20063;-80
2023/01/29 10:14:07;;;;;;;61.88;29.58;;;0.40;99.90;;;-144.05;68.23;125687.94;5043308;28;20045;-80
2023/01/29 10:17:35;;;;;;;62.70;26.85;;;0.50;99.90;;;-144.05;67.54;125687.94;5042982;28;20128;-82
2023/01/29 10:20:10;;;;;;;65.82;28.48;;;0.60;99.90;;;-144.05;67.52;125687.94;5042259;28;20029;-81
2023/01/29 10:23:21;;;;;;;63.47;29.13;;;0.60;99.90;;;-144.05;67.19;125687.94;5043314;28;20443;-84
2023/01/29 10:25:48;;;;;;;67.78;29.45;;;0.70;99.90;;;-144.05;67.26;125687.94;5041112;28;20036;-81
2023/01/29 10:28:32;;;;;;;60.72;28.52;;;0.70;99.90;;;-144.05;67.07;125687.94;5055478;28;20051;-81
2023/01/29 10:31:12;;;;;;;69.07;30.77;;;0.70;99.90;;;-144.05;67.13;125687.94;5039878;28;20021;-80
2023/01/29 10:33:51;;;;;;;62.72;28.98;;;0.70;99.90;;;-144.05;67.10;125687.94;5041464;28;20028;-81
2023/01/29 10:36:33;;;;;;;63.53;28.63;;;0.80;99.90;;;-144.05;67.37;125687.94;5055107;28;20025;-83
2023/01/29 10:38:59;;;;;;;65.50;29.17;;;0.70;99.90;;;-144.05;67.21;125687.94;5053139;28;20025;-81
2023/01/29 10:42:18;;;;;;;63.97;28.30;;;0.70;99.90;;;-144.05;67.18;125687.94;5035858;28;20044;-81
2023/01/29 10:45:28;;;;;;;57.58;26.63;;;0.80;99.90;;;-144.05;67.36;125687.94;4995460;28;20034;-80
2023/01/29 10:48:03;;;;;;;63.55;28.73;;;0.80;99.90;;;-144.05;66.69;125687.94;5020290;28;20068;-82